NCAR-RAP Real-Time Weather Data

Output produced by METARs form (27 August 2016  08:05 UTC)
found at http://weather.rap.ucar.edu/surface/
 
Conditions at: K4O4 observed 27 August 2016  07:55 UTC
Temperature: 22.0°C (72°F)
Dewpoint: 21.0°C (70°F) [RH = 94%]
Pressure (altimeter): 30.01 inches Hg (1016.3 mb)
Winds: calm
Visibility: 4 miles (6 km)
Ceiling: 100 feet AGL
Clouds: broken clouds at 100 feet AGL
Present Weather: automated observation with no human augmentation;
there may or may not be significant weather present at this time
K4O4 270755Z AUTO 00000KT 4SM BKN001 22/21 A3001 RMK AO2